createdAt,value
2022-12-27T00:00:13.993Z,5.70
2022-12-27T00:02:42.706Z,5.60
2022-12-27T00:05:15.586Z,5.70
2022-12-27T00:07:43.731Z,5.70
2022-12-27T00:10:15.788Z,5.70
2022-12-27T00:12:47.171Z,5.70
2022-12-27T00:15:18.465Z,5.90
2022-12-27T00:17:49.445Z,5.60
2022-12-27T00:20:18.667Z,5.60
2022-12-27T00:22:47.505Z,5.40
2022-12-27T00:25:17.410Z,5.40
2022-12-27T00:27:45.588Z,5.20
2022-12-27T00:30:16.764Z,5.20
2022-12-27T00:32:48.433Z,5.30
2022-12-27T00:35:16.738Z,5.30
2022-12-27T00:37:45.968Z,5.30
2022-12-27T00:40:15.519Z,5.00
2022-12-27T00:42:43.738Z,5.10
2022-12-27T00:45:13.096Z,5.20
2022-12-27T00:47:41.452Z,5.10
2022-12-27T00:50:11.143Z,5.40
2022-12-27T00:52:39.417Z,5.20
2022-12-27T00:55:07.946Z,5.40
2022-12-27T00:57:37.160Z,5.50
2022-12-27T01:00:10.571Z,5.30
2022-12-27T01:02:39.692Z,4.90
2022-12-27T01:05:10.878Z,5.10
2022-12-27T01:07:42.196Z,6.70
2022-12-27T01:10:14.676Z,5.00
2022-12-27T01:12:42.865Z,4.90
2022-12-27T01:15:14.429Z,4.70
2022-12-27T01:17:42.279Z,5.10
2022-12-27T01:20:12.324Z,4.70
2022-12-27T01:22:41.391Z,4.80
2022-12-27T01:25:10.205Z,4.60
2022-12-27T01:27:38.464Z,4.50
2022-12-27T01:30:10.459Z,4.70
2022-12-27T01:32:40.435Z,4.60
2022-12-27T01:35:09.145Z,4.50
2022-12-27T01:37:39.204Z,4.40
2022-12-27T01:40:09.285Z,4.50
2022-12-27T01:42:55.641Z,4.60
2022-12-27T01:45:26.292Z,4.00
2022-12-27T01:48:02.725Z,4.20
2022-12-27T01:50:35.334Z,4.00
2022-12-27T01:53:13.426Z,3.80
2022-12-27T01:55:47.702Z,4.00
2022-12-27T01:58:20.118Z,3.80
2022-12-27T02:00:50.690Z,3.80
2022-12-27T02:03:27.528Z,4.20
2022-12-27T02:05:56.859Z,3.50
2022-12-27T02:08:45.167Z,3.20
2022-12-27T02:11:15.811Z,3.40
2022-12-27T02:13:47.409Z,3.40
2022-12-27T02:16:18.044Z,3.70
2022-12-27T02:18:47.499Z,3.50
2022-12-27T02:21:55.264Z,3.30
2022-12-27T02:25:03.434Z,3.20
2022-12-27T02:28:02.675Z,3.30
2022-12-27T02:30:41.642Z,3.10
2022-12-27T02:33:15.682Z,3.30
2022-12-27T02:35:50.857Z,3.20
2022-12-27T02:38:26.344Z,3.10
2022-12-27T02:41:14.676Z,3.30
2022-12-27T02:46:49.949Z,3.50
2022-12-27T02:49:44.510Z,3.40
2022-12-27T02:52:40.958Z,3.00
2022-12-27T02:55:23.601Z,3.30
2022-12-27T02:58:04.435Z,3.60
2022-12-27T03:00:56.033Z,3.70
2022-12-27T03:03:44.664Z,3.50
2022-12-27T03:06:41.653Z,3.70
2022-12-27T03:09:52.610Z,3.40
2022-12-27T03:12:49.631Z,3.40
2022-12-27T03:15:49.176Z,3.60
2022-12-27T03:18:23.858Z,3.50
2022-12-27T03:21:11.698Z,5.10
2022-12-27T03:23:59.871Z,3.40
2022-12-27T03:26:33.283Z,3.30
2022-12-27T03:29:24.197Z,3.10
2022-12-27T03:32:14.277Z,2.90
2022-12-27T03:34:52.876Z,3.30
2022-12-27T03:37:44.519Z,3.40
2022-12-27T03:40:22.121Z,3.00
2022-12-27T03:43:11.792Z,3.40
2022-12-27T03:46:14.992Z,3.10
2022-12-27T03:49:02.788Z,3.80
2022-12-27T03:51:35.899Z,3.70
2022-12-27T03:54:10.539Z,3.80
2022-12-27T03:56:41.772Z,3.70
2022-12-27T03:59:12.088Z,3.80
2022-12-27T04:01:42.543Z,3.80
2022-12-27T04:04:10.811Z,4.10
2022-12-27T04:06:38.723Z,4.20
2022-12-27T04:09:28.676Z,4.20
2022-12-27T04:12:14.546Z,4.00
2022-12-27T04:15:00.795Z,4.40
2022-12-27T04:17:47.863Z,4.20
2022-12-27T04:20:33.833Z,4.50
2022-12-27T04:23:19.513Z,4.10
2022-12-27T04:26:06.836Z,4.30
2022-12-27T04:28:52.265Z,3.90
2022-12-27T04:31:37.857Z,4.00
2022-12-27T04:36:51.956Z,4.20
2022-12-27T04:39:20.164Z,3.50
2022-12-27T04:42:07.426Z,4.00
2022-12-27T04:44:58.388Z,3.70
2022-12-27T04:47:53.475Z,4.00
2022-12-27T04:50:45.243Z,4.00
2022-12-27T04:53:33.038Z,4.00
2022-12-27T04:56:01.096Z,4.20
2022-12-27T04:58:32.390Z,4.40
2022-12-27T05:01:21.255Z,4.10
2022-12-27T05:03:52.889Z,4.00
2022-12-27T05:06:22.463Z,3.70
2022-12-27T05:09:08.107Z,4.00
2022-12-27T05:11:53.600Z,4.00
2022-12-27T05:14:24.655Z,4.10
2022-12-27T05:16:53.698Z,4.00
2022-12-27T05:22:04.984Z,6.70
2022-12-27T05:24:50.665Z,4.20
2022-12-27T05:27:19.002Z,4.00
2022-12-27T05:29:48.966Z,3.70
2022-12-27T05:32:17.169Z,3.90
2022-12-27T05:34:47.628Z,3.60
2022-12-27T05:37:15.822Z,3.80
2022-12-27T05:39:43.756Z,3.80
2022-12-27T05:42:11.908Z,3.80
2022-12-27T05:44:39.997Z,3.70
2022-12-27T05:47:09.482Z,5.50
2022-12-27T05:49:38.888Z,4.00
2022-12-27T05:52:07.787Z,4.10
2022-12-27T05:54:40.656Z,4.30
2022-12-27T05:57:12.796Z,4.50
2022-12-27T05:59:43.144Z,4.40
2022-12-27T06:02:14.786Z,4.30
2022-12-27T06:04:43.246Z,4.40
2022-12-27T06:07:13.838Z,4.60
2022-12-27T06:09:42.696Z,4.80
2022-12-27T06:12:12.068Z,4.70
2022-12-27T06:14:42.228Z,5.00
2022-12-27T06:17:10.107Z,5.00
2022-12-27T06:19:39.522Z,4.70
2022-12-27T06:22:07.772Z,4.90
2022-12-27T06:24:35.926Z,4.70
2022-12-27T06:27:03.885Z,5.00
2022-12-27T06:29:32.265Z,4.80
2022-12-27T06:32:00.988Z,4.40
2022-12-27T06:36:58.727Z,4.30
2022-12-27T06:39:26.902Z,4.50
2022-12-27T06:41:56.426Z,4.70
2022-12-27T06:44:25.434Z,4.60
2022-12-27T06:51:55.656Z,4.10
2022-12-27T06:54:30.271Z,5.10
2022-12-27T06:57:05.951Z,4.30
2022-12-27T06:59:34.378Z,3.90
2022-12-27T07:02:03.036Z,4.30
2022-12-27T07:09:32.173Z,4.40
2022-12-27T07:12:03.160Z,3.90
2022-12-27T07:14:32.680Z,3.80
2022-12-27T07:17:01.054Z,3.80
2022-12-27T07:19:29.678Z,4.00
2022-12-27T07:21:57.816Z,3.80
2022-12-27T07:26:57.437Z,3.50
2022-12-27T07:32:01.837Z,3.90
2022-12-27T07:39:29.251Z,3.70
2022-12-27T07:42:03.346Z,3.80
2022-12-27T07:49:34.744Z,4.00
2022-12-27T07:57:01.493Z,3.90
2022-12-27T08:04:44.105Z,3.90
2022-12-27T08:07:19.191Z,4.20
2022-12-27T08:09:49.297Z,4.40
2022-12-27T08:12:19.906Z,4.50
2022-12-27T08:14:50.381Z,4.50
2022-12-27T08:17:22.036Z,4.80
2022-12-27T08:19:53.345Z,4.60
2022-12-27T08:22:23.102Z,4.60
2022-12-27T08:27:25.960Z,5.00
2022-12-27T08:29:53.946Z,5.10
2022-12-27T08:34:50.841Z,4.00
2022-12-27T08:37:22.292Z,4.10
2022-12-27T08:44:49.453Z,4.40
2022-12-27T08:47:19.562Z,4.10
2022-12-27T08:49:49.167Z,4.10
2022-12-27T08:57:15.831Z,4.30
2022-12-27T09:02:14.471Z,4.50
2022-12-27T09:04:43.224Z,4.40
2022-12-27T09:07:12.428Z,4.50
2022-12-27T09:12:11.533Z,4.50
2022-12-27T09:17:09.482Z,4.90
2022-12-27T09:19:39.839Z,5.60
2022-12-27T09:22:07.817Z,5.20
2022-12-27T09:24:36.535Z,5.40
2022-12-27T09:27:05.955Z,5.80
2022-12-27T09:29:34.412Z,5.50
2022-12-27T09:32:02.456Z,6.10
2022-12-27T09:37:01.316Z,5.70
2022-12-27T09:39:29.306Z,5.80
2022-12-27T09:44:58.347Z,6.00
2022-12-27T09:47:30.594Z,6.10
2022-12-27T09:50:03.250Z,6.10
2022-12-27T09:52:37.824Z,5.90
2022-12-27T09:55:16.146Z,6.10
2022-12-27T09:57:50.632Z,6.30
2022-12-27T10:00:34.206Z,6.30
2022-12-27T10:03:06.865Z,6.40
2022-12-27T10:05:38.248Z,6.50
2022-12-27T10:08:31.001Z,6.60
2022-12-27T10:11:06.472Z,6.60
2022-12-27T10:13:50.020Z,6.60
2022-12-27T10:16:31.297Z,6.70
2022-12-27T10:19:13.766Z,6.80
2022-12-27T10:21:53.486Z,6.80
2022-12-27T10:24:27.588Z,6.90
2022-12-27T10:26:56.935Z,7.00
2022-12-27T10:29:26.765Z,7.00
2022-12-27T10:31:55.483Z,6.90
2022-12-27T10:34:24.553Z,7.00
2022-12-27T10:36:55.271Z,7.10
2022-12-27T10:39:29.975Z,7.20
2022-12-27T10:42:03.966Z,7.30
2022-12-27T10:44:32.014Z,7.40
2022-12-27T10:47:01.119Z,7.50
2022-12-27T10:49:31.863Z,7.40
2022-12-27T10:52:09.731Z,7.50
2022-12-27T10:54:53.825Z,7.60
2022-12-27T10:57:29.057Z,7.80
2022-12-27T11:00:18.569Z,7.90
2022-12-27T11:02:54.706Z,7.80
2022-12-27T11:05:27.813Z,7.90
2022-12-27T11:07:56.184Z,7.90
2022-12-27T11:10:36.850Z,8.00
2022-12-27T11:13:07.822Z,8.30
2022-12-27T11:15:45.546Z,8.50
2022-12-27T11:18:22.521Z,8.70
2022-12-27T11:20:55.086Z,8.50
2022-12-27T11:23:25.475Z,8.80
2022-12-27T11:25:59.835Z,9.00
2022-12-27T11:28:44.895Z,9.20
2022-12-27T11:31:16.593Z,9.20
2022-12-27T11:33:49.321Z,9.40
2022-12-27T11:36:27.715Z,9.40
2022-12-27T11:38:58.745Z,9.50
2022-12-27T11:41:41.616Z,9.60
2022-12-27T11:44:19.636Z,9.50
2022-12-27T11:46:59.074Z,9.70
2022-12-27T11:49:33.482Z,9.60
2022-12-27T11:52:30.699Z,9.50
2022-12-27T11:55:28.446Z,9.30
2022-12-27T11:58:22.735Z,9.20
2022-12-27T12:01:03.644Z,9.10
2022-12-27T12:04:01.512Z,9.20
2022-12-27T12:06:46.243Z,9.10
2022-12-27T12:09:42.647Z,9.00
2022-12-27T12:12:48.711Z,8.90
2022-12-27T12:15:34.954Z,8.60
2022-12-27T12:18:12.716Z,8.50
2022-12-27T12:21:15.614Z,8.40
2022-12-27T12:24:17.902Z,8.20
2022-12-27T12:26:56.082Z,8.10
2022-12-27T12:29:54.855Z,8.00
2022-12-27T12:32:39.730Z,7.90
2022-12-27T12:35:42.298Z,7.70
2022-12-27T12:38:22.600Z,7.70
2022-12-27T12:41:17.796Z,7.60
2022-12-27T12:44:21.055Z,7.50
2022-12-27T12:46:58.094Z,7.50
2022-12-27T12:49:47.858Z,7.60
2022-12-27T12:52:38.161Z,7.60
2022-12-27T12:55:39.068Z,7.70
2022-12-27T12:58:20.465Z,7.70
2022-12-27T13:01:06.015Z,7.70
2022-12-27T13:03:58.357Z,7.60
2022-12-27T13:07:07.641Z,7.70
2022-12-27T13:09:52.061Z,7.70
2022-12-27T13:12:27.114Z,7.80
2022-12-27T13:15:23.500Z,7.80
2022-12-27T13:18:06.351Z,7.80
2022-12-27T13:20:59.196Z,7.90
2022-12-27T13:23:40.003Z,7.90
2022-12-27T13:26:20.854Z,7.90
2022-12-27T13:29:02.848Z,7.90
2022-12-27T13:31:42.030Z,7.90
2022-12-27T13:34:25.450Z,8.00
2022-12-27T13:37:09.467Z,8.00
2022-12-27T13:39:50.523Z,8.00
2022-12-27T13:42:39.735Z,8.10
2022-12-27T13:45:24.475Z,8.10
2022-12-27T13:48:16.372Z,8.10
2022-12-27T13:50:57.880Z,8.20
2022-12-27T13:54:07.780Z,8.20
2022-12-27T13:56:57.511Z,8.30
2022-12-27T14:00:05.059Z,8.40
2022-12-27T14:03:17.897Z,8.30
2022-12-27T14:06:15.129Z,8.30
2022-12-27T14:09:21.356Z,8.20
2022-12-27T14:12:10.079Z,8.20
2022-12-27T14:14:43.235Z,8.30
2022-12-27T14:17:27.532Z,8.30
2022-12-27T14:20:12.401Z,8.20
2022-12-27T14:23:02.308Z,8.20
2022-12-27T14:26:12.142Z,8.20
2022-12-27T14:29:26.124Z,8.00
2022-12-27T14:32:28.077Z,7.90
2022-12-27T14:35:52.431Z,7.90
2022-12-27T14:38:54.029Z,7.90
2022-12-27T14:41:58.605Z,8.00
2022-12-27T14:45:10.667Z,7.90
2022-12-27T14:48:01.911Z,7.90
2022-12-27T14:51:07.995Z,7.90
2022-12-27T14:54:05.257Z,7.70
2022-12-27T14:56:38.334Z,7.70
2022-12-27T14:59:12.598Z,7.60
2022-12-27T15:02:06.770Z,7.60
2022-12-27T15:04:56.431Z,7.30
2022-12-27T15:07:48.745Z,7.30
2022-12-27T15:10:27.186Z,7.20
2022-12-27T15:13:08.487Z,7.10
2022-12-27T15:15:58.398Z,7.00
2022-12-27T15:18:43.395Z,7.00
2022-12-27T15:21:24.264Z,6.90
2022-12-27T15:23:57.290Z,6.80
2022-12-27T15:26:31.105Z,6.80
2022-12-27T15:29:15.578Z,6.70
2022-12-27T15:32:00.344Z,6.70
2022-12-27T15:34:58.321Z,6.60
2022-12-27T15:38:04.109Z,6.50
2022-12-27T15:40:53.060Z,6.50
2022-12-27T15:43:37.288Z,6.40
2022-12-27T15:46:21.012Z,6.50
2022-12-27T15:49:16.380Z,6.50
2022-12-27T15:51:53.777Z,6.40
2022-12-27T15:54:51.851Z,6.40
2022-12-27T15:57:53.202Z,6.40
2022-12-27T16:00:33.384Z,6.20
2022-12-27T16:03:04.882Z,6.20
2022-12-27T16:05:47.394Z,6.10
2022-12-27T16:08:34.445Z,6.00
2022-12-27T16:11:11.517Z,6.00
2022-12-27T16:13:48.657Z,5.90
2022-12-27T16:16:56.389Z,5.90
2022-12-27T16:19:58.795Z,5.80
2022-12-27T16:22:33.029Z,5.60
2022-12-27T16:25:28.512Z,5.50
2022-12-27T16:28:03.807Z,5.30
2022-12-27T16:30:47.930Z,5.20
2022-12-27T16:33:35.134Z,5.20
2022-12-27T16:36:14.815Z,5.00
2022-12-27T16:38:50.234Z,5.00
2022-12-27T16:41:37.900Z,4.90
2022-12-27T16:44:20.761Z,4.80
2022-12-27T16:47:00.467Z,4.70
2022-12-27T16:49:57.538Z,4.70
2022-12-27T16:52:58.232Z,4.60
2022-12-27T16:55:52.684Z,4.60
2022-12-27T16:58:25.889Z,4.50
2022-12-27T17:01:04.093Z,4.50
2022-12-27T17:03:43.412Z,4.40
2022-12-27T17:06:49.573Z,4.30
2022-12-27T17:09:41.014Z,4.30
2022-12-27T17:12:20.813Z,4.30
2022-12-27T17:14:53.145Z,4.30
2022-12-27T17:17:24.387Z,4.30
2022-12-27T17:19:58.393Z,4.30
2022-12-27T17:22:35.107Z,4.20
2022-12-27T17:25:04.562Z,4.10
2022-12-27T17:27:57.819Z,4.10
2022-12-27T17:30:27.731Z,4.10
2022-12-27T17:33:23.478Z,4.00
2022-12-27T17:36:27.089Z,4.00
2022-12-27T17:39:10.279Z,3.90
2022-12-27T17:42:02.392Z,3.80
2022-12-27T17:44:58.569Z,3.80
2022-12-27T17:47:46.883Z,3.70
2022-12-27T17:50:28.888Z,3.70
2022-12-27T17:53:36.681Z,3.70
2022-12-27T17:56:36.483Z,3.60
2022-12-27T17:59:11.644Z,3.70
2022-12-27T18:01:46.874Z,3.60
2022-12-27T18:04:23.510Z,3.60
2022-12-27T18:07:04.745Z,3.60
2022-12-27T18:09:39.295Z,3.60
2022-12-27T18:12:15.760Z,3.50
2022-12-27T18:14:45.205Z,3.50
2022-12-27T18:17:29.352Z,3.50
2022-12-27T18:19:57.845Z,3.40
2022-12-27T18:22:28.512Z,3.40
2022-12-27T18:24:57.007Z,3.40
2022-12-27T18:27:28.716Z,3.40
2022-12-27T18:30:00.664Z,3.40
2022-12-27T18:32:29.156Z,3.50
2022-12-27T18:35:02.797Z,3.40
2022-12-27T18:37:36.235Z,3.40
2022-12-27T18:40:06.194Z,3.40
2022-12-27T18:42:36.105Z,3.50
2022-12-27T18:45:08.477Z,3.50
2022-12-27T18:47:41.062Z,3.50
2022-12-27T18:50:19.140Z,3.50
2022-12-27T18:52:54.970Z,3.50
2022-12-27T18:55:27.551Z,3.50
2022-12-27T18:58:06.794Z,3.50
2022-12-27T19:00:49.511Z,3.50
2022-12-27T19:03:19.788Z,3.50
2022-12-27T19:06:08.608Z,3.50
2022-12-27T19:08:40.450Z,3.50
2022-12-27T19:11:09.772Z,3.40
2022-12-27T19:13:53.605Z,3.40
2022-12-27T19:16:30.837Z,3.40
2022-12-27T19:19:04.357Z,3.30
2022-12-27T19:21:39.213Z,3.30
2022-12-27T19:24:33.614Z,3.30
2022-12-27T19:27:14.560Z,3.20
2022-12-27T19:29:50.142Z,3.20
2022-12-27T19:32:20.829Z,3.20
2022-12-27T19:34:52.213Z,3.30
2022-12-27T19:37:20.584Z,3.40
2022-12-27T19:39:50.313Z,3.40
2022-12-27T19:42:26.783Z,3.40
2022-12-27T19:44:54.735Z,3.40
2022-12-27T19:47:22.952Z,3.40
2022-12-27T19:49:51.438Z,3.40
2022-12-27T19:52:21.468Z,3.50
2022-12-27T19:54:52.796Z,3.40
2022-12-27T19:57:22.521Z,3.40
2022-12-27T19:59:51.135Z,3.40
2022-12-27T20:02:21.468Z,3.30
2022-12-27T20:04:50.001Z,3.30
2022-12-27T20:07:22.798Z,3.30
2022-12-27T20:09:56.225Z,3.20
2022-12-27T20:12:27.210Z,3.20
2022-12-27T20:14:55.201Z,3.20
2022-12-27T20:17:24.335Z,3.10
2022-12-27T20:19:55.099Z,3.10
2022-12-27T20:22:23.184Z,3.10
2022-12-27T20:24:53.904Z,3.10
2022-12-27T20:27:24.313Z,3.10
2022-12-27T20:29:55.800Z,3.00
2022-12-27T20:32:25.914Z,3.00
2022-12-27T20:34:54.803Z,2.90
2022-12-27T20:37:24.930Z,2.90
2022-12-27T20:39:54.660Z,2.90
2022-12-27T20:42:24.632Z,2.80
2022-12-27T20:44:54.578Z,2.80
2022-12-27T20:47:24.656Z,2.80
2022-12-27T20:49:52.615Z,2.70
2022-12-27T20:52:24.313Z,2.70
2022-12-27T20:54:56.476Z,2.70
2022-12-27T20:57:25.029Z,2.70
2022-12-27T20:59:54.049Z,2.60
2022-12-27T21:02:22.211Z,2.60
2022-12-27T21:04:50.264Z,2.60
2022-12-27T21:07:21.362Z,2.60
2022-12-27T21:09:49.996Z,2.50
2022-12-27T21:12:19.563Z,2.50
2022-12-27T21:14:47.692Z,2.50
2022-12-27T21:17:15.570Z,2.40
2022-12-27T21:19:43.555Z,2.40
2022-12-27T21:22:12.053Z,2.40
2022-12-27T21:24:40.427Z,2.40
2022-12-27T21:27:09.097Z,2.30
2022-12-27T21:29:38.688Z,2.30
2022-12-27T21:32:07.776Z,2.30
2022-12-27T21:34:38.071Z,2.30
2022-12-27T21:37:13.317Z,2.30
2022-12-27T21:39:41.978Z,2.20
2022-12-27T21:42:13.372Z,2.20
2022-12-27T21:44:43.406Z,2.20
2022-12-27T21:47:11.792Z,2.10
2022-12-27T21:49:41.530Z,2.20
2022-12-27T21:52:10.315Z,2.10
2022-12-27T21:54:38.197Z,2.10
2022-12-27T21:57:06.225Z,2.10
2022-12-27T21:59:34.148Z,2.10
2022-12-27T22:02:04.110Z,2.00
2022-12-27T22:04:32.411Z,2.00
2022-12-27T22:07:01.575Z,2.00
2022-12-27T22:09:29.731Z,2.00
2022-12-27T22:11:58.021Z,2.00
2022-12-27T22:14:33.265Z,1.90
2022-12-27T22:17:06.595Z,1.90
2022-12-27T22:19:34.922Z,1.90
2022-12-27T22:22:04.515Z,1.90
2022-12-27T22:24:32.580Z,1.90
2022-12-27T22:27:01.040Z,1.90
2022-12-27T22:29:33.331Z,1.90
2022-12-27T22:32:03.367Z,1.90
2022-12-27T22:34:32.891Z,1.90
2022-12-27T22:37:01.806Z,1.90
2022-12-27T22:39:30.205Z,1.90
2022-12-27T22:41:59.593Z,1.90
2022-12-27T22:44:28.606Z,2.00
2022-12-27T22:49:49.335Z,2.10
2022-12-27T22:52:17.740Z,2.10
2022-12-27T22:55:05.113Z,2.10
2022-12-27T22:57:35.107Z,2.20
2022-12-27T23:00:06.660Z,2.30
2022-12-27T23:02:35.075Z,2.30
2022-12-27T23:05:05.644Z,2.30
2022-12-27T23:08:05.117Z,2.30
2022-12-27T23:10:21.803Z,2.40
2022-12-27T23:12:52.798Z,2.40
2022-12-27T23:15:21.008Z,2.50
2022-12-27T23:17:48.859Z,2.50
2022-12-27T23:20:18.297Z,2.50
2022-12-27T23:22:46.477Z,2.60
2022-12-27T23:25:14.841Z,2.60
2022-12-27T23:27:43.165Z,2.60
2022-12-27T23:30:13.101Z,2.60
2022-12-27T23:32:41.447Z,2.60
2022-12-27T23:35:12.430Z,2.60
2022-12-27T23:37:41.670Z,2.60
2022-12-27T23:40:12.552Z,2.60
2022-12-27T23:42:40.898Z,2.60
2022-12-27T23:45:13.520Z,2.60
2022-12-27T23:47:41.676Z,2.60
2022-12-27T23:50:12.382Z,2.70
2022-12-27T23:52:46.894Z,2.70
2022-12-27T23:55:15.103Z,2.60
2022-12-27T23:57:43.255Z,2.60
